sensor_id;sensor_type;location;lat;lon;timestamp;temperature;humidity
19261;DHT22;9764;48.114;11.670;2023-03-13T00:01:56;19.20;85.90
19261;DHT22;9764;48.114;11.670;2023-03-13T00:04:25;19.10;85.80
19261;DHT22;9764;48.114;11.670;2023-03-13T00:06:53;19.20;85.90
19261;DHT22;9764;48.114;11.670;2023-03-13T00:09:21;19.10;85.80
19261;DHT22;9764;48.114;11.670;2023-03-13T00:11:50;19.20;85.90
19261;DHT22;9764;48.114;11.670;2023-03-13T00:14:18;19.10;85.80
19261;DHT22;9764;48.114;11.670;2023-03-13T00:16:48;19.10;85.80
19261;DHT22;9764;48.114;11.670;2023-03-13T00:19:16;19.10;85.80
19261;DHT22;9764;48.114;11.670;2023-03-13T00:21:45;19.20;85.90
19261;DHT22;9764;48.114;11.670;2023-03-13T00:24:13;19.20;85.90
19261;DHT22;9764;48.114;11.670;2023-03-13T00:26:42;19.10;85.80
19261;DHT22;9764;48.114;11.670;2023-03-13T00:29:10;19.10;85.80
19261;DHT22;9764;48.114;11.670;2023-03-13T00:31:39;19.20;85.90
19261;DHT22;9764;48.114;11.670;2023-03-13T00:34:09;19.10;85.90
19261;DHT22;9764;48.114;11.670;2023-03-13T00:36:38;19.10;85.80
19261;DHT22;9764;48.114;11.670;2023-03-13T00:39:06;19.10;85.90
19261;DHT22;9764;48.114;11.670;2023-03-13T00:41:35;19.10;85.80
19261;DHT22;9764;48.114;11.670;2023-03-13T00:44:04;19.10;85.90
19261;DHT22;9764;48.114;11.670;2023-03-13T00:46:32;19.10;85.90
19261;DHT22;9764;48.114;11.670;2023-03-13T00:49:01;19.20;86.00
19261;DHT22;9764;48.114;11.670;2023-03-13T00:51:31;19.10;85.90
19261;DHT22;9764;48.114;11.670;2023-03-13T00:53:59;19.20;86.70
19261;DHT22;9764;48.114;11.670;2023-03-13T00:56:28;19.10;85.80
19261;DHT22;9764;48.114;11.670;2023-03-13T00:58:58;19.10;85.80
19261;DHT22;9764;48.114;11.670;2023-03-13T01:01:29;19.10;85.80
19261;DHT22;9764;48.114;11.670;2023-03-13T01:03:59;19.10;85.80
19261;DHT22;9764;48.114;11.670;2023-03-13T01:06:33;19.20;85.90
19261;DHT22;9764;48.114;11.670;2023-03-13T01:09:03;19.10;85.80
19261;DHT22;9764;48.114;11.670;2023-03-13T01:11:34;19.10;85.80
19261;DHT22;9764;48.114;11.670;2023-03-13T01:14:05;19.20;85.90
19261;DHT22;9764;48.114;11.670;2023-03-13T01:16:34;19.10;85.80
19261;DHT22;9764;48.114;11.670;2023-03-13T01:19:05;19.20;85.90
19261;DHT22;9764;48.114;11.670;2023-03-13T01:21:35;19.20;86.00
19261;DHT22;9764;48.114;11.670;2023-03-13T01:24:04;19.20;85.90
19261;DHT22;9764;48.114;11.670;2023-03-13T01:26:32;19.10;85.90
19261;DHT22;9764;48.114;11.670;2023-03-13T01:29:01;19.20;86.00
19261;DHT22;9764;48.114;11.670;2023-03-13T01:31:31;19.20;86.00
19261;DHT22;9764;48.114;11.670;2023-03-13T01:34:01;19.20;86.00
19261;DHT22;9764;48.114;11.670;2023-03-13T01:36:30;19.20;86.00
19261;DHT22;9764;48.114;11.670;2023-03-13T01:39:01;19.10;85.90
19261;DHT22;9764;48.114;11.670;2023-03-13T01:41:29;19.20;86.80
19261;DHT22;9764;48.114;11.670;2023-03-13T01:43:58;19.10;85.90
19261;DHT22;9764;48.114;11.670;2023-03-13T01:46:31;19.20;85.90
19261;DHT22;9764;48.114;11.670;2023-03-13T01:49:03;19.10;85.90
19261;DHT22;9764;48.114;11.670;2023-03-13T01:51:41;19.10;86.70
19261;DHT22;9764;48.114;11.670;2023-03-13T01:54:15;19.20;86.00
19261;DHT22;9764;48.114;11.670;2023-03-13T01:56:48;19.10;85.90
19261;DHT22;9764;48.114;11.670;2023-03-13T01:59:23;19.10;85.90
19261;DHT22;9764;48.114;11.670;2023-03-13T02:01:56;19.20;86.00
19261;DHT22;9764;48.114;11.670;2023-03-13T02:04:26;19.10;86.70
19261;DHT22;9764;48.114;11.670;2023-03-13T02:06:59;19.10;85.90
19261;DHT22;9764;48.114;11.670;2023-03-13T02:09:30;19.20;86.00
19261;DHT22;9764;48.114;11.670;2023-03-13T02:12:03;19.10;85.80
19261;DHT22;9764;48.114;11.670;2023-03-13T02:14:36;19.20;86.00
19261;DHT22;9764;48.114;11.670;2023-03-13T02:17:06;19.10;85.90
19261;DHT22;9764;48.114;11.670;2023-03-13T02:19:39;19.10;85.90
19261;DHT22;9764;48.114;11.670;2023-03-13T02:22:14;19.10;85.90
19261;DHT22;9764;48.114;11.670;2023-03-13T02:24:51;19.20;85.90
19261;DHT22;9764;48.114;11.670;2023-03-13T02:27:23;19.20;86.00
19261;DHT22;9764;48.114;11.670;2023-03-13T02:29:52;19.10;85.90
19261;DHT22;9764;48.114;11.670;2023-03-13T02:32:21;19.10;85.90
19261;DHT22;9764;48.114;11.670;2023-03-13T02:34:53;19.20;86.00
19261;DHT22;9764;48.114;11.670;2023-03-13T02:37:24;19.10;85.90
19261;DHT22;9764;48.114;11.670;2023-03-13T02:39:56;19.10;85.90
19261;DHT22;9764;48.114;11.670;2023-03-13T02:42:27;19.20;86.00
19261;DHT22;9764;48.114;11.670;2023-03-13T02:44:56;19.10;85.90
19261;DHT22;9764;48.114;11.670;2023-03-13T02:47:24;19.10;85.90
19261;DHT22;9764;48.114;11.670;2023-03-13T02:49:53;19.20;86.00
19261;DHT22;9764;48.114;11.670;2023-03-13T02:52:24;19.20;86.00
19261;DHT22;9764;48.114;11.670;2023-03-13T02:54:57;19.10;85.90
19261;DHT22;9764;48.114;11.670;2023-03-13T02:57:28;19.20;85.90
19261;DHT22;9764;48.114;11.670;2023-03-13T02:59:57;19.10;85.90
19261;DHT22;9764;48.114;11.670;2023-03-13T03:02:26;19.10;85.90
19261;DHT22;9764;48.114;11.670;2023-03-13T03:04:54;19.20;86.00
19261;DHT22;9764;48.114;11.670;2023-03-13T03:07:23;19.10;85.90
19261;DHT22;9764;48.114;11.670;2023-03-13T03:09:52;19.10;85.90
19261;DHT22;9764;48.114;11.670;2023-03-13T03:12:20;19.10;85.90
19261;DHT22;9764;48.114;11.670;2023-03-13T03:14:50;19.20;86.00
19261;DHT22;9764;48.114;11.670;2023-03-13T03:17:19;19.10;85.80
19261;DHT22;9764;48.114;11.670;2023-03-13T03:19:47;19.10;85.80
19261;DHT22;9764;48.114;11.670;2023-03-13T03:22:16;19.20;86.00
19261;DHT22;9764;48.114;11.670;2023-03-13T03:24:44;19.10;85.90
19261;DHT22;9764;48.114;11.670;2023-03-13T03:27:12;19.10;85.80
19261;DHT22;9764;48.114;11.670;2023-03-13T03:29:46;19.10;85.80
19261;DHT22;9764;48.114;11.670;2023-03-13T03:32:16;19.10;85.80
19261;DHT22;9764;48.114;11.670;2023-03-13T03:34:45;19.10;85.80
19261;DHT22;9764;48.114;11.670;2023-03-13T03:37:13;19.20;85.90
19261;DHT22;9764;48.114;11.670;2023-03-13T03:39:41;19.20;85.90
19261;DHT22;9764;48.114;11.670;2023-03-13T03:42:10;19.20;85.90
19261;DHT22;9764;48.114;11.670;2023-03-13T03:44:38;19.10;85.80
19261;DHT22;9764;48.114;11.670;2023-03-13T03:47:09;19.20;85.90
19261;DHT22;9764;48.114;11.670;2023-03-13T03:49:42;19.20;85.90
19261;DHT22;9764;48.114;11.670;2023-03-13T03:52:12;19.20;85.90
19261;DHT22;9764;48.114;11.670;2023-03-13T03:54:42;19.10;85.80
19261;DHT22;9764;48.114;11.670;2023-03-13T03:57:11;19.20;85.90
19261;DHT22;9764;48.114;11.670;2023-03-13T03:59:42;19.10;86.60
19261;DHT22;9764;48.114;11.670;2023-03-13T04:02:11;19.20;85.90
19261;DHT22;9764;48.114;11.670;2023-03-13T04:04:42;19.20;85.80
19261;DHT22;9764;48.114;11.670;2023-03-13T04:07:19;19.10;85.70
19261;DHT22;9764;48.114;11.670;2023-03-13T04:09:48;19.20;85.80
19261;DHT22;9764;48.114;11.670;2023-03-13T04:12:25;19.20;85.80
19261;DHT22;9764;48.114;11.670;2023-03-13T04:14:54;19.20;85.90
19261;DHT22;9764;48.114;11.670;2023-03-13T04:17:23;19.10;85.80
19261;DHT22;9764;48.114;11.670;2023-03-13T04:19:53;19.10;85.70
19261;DHT22;9764;48.114;11.670;2023-03-13T04:22:21;19.20;85.90
19261;DHT22;9764;48.114;11.670;2023-03-13T04:24:55;19.20;85.80
19261;DHT22;9764;48.114;11.670;2023-03-13T04:27:23;19.20;85.90
19261;DHT22;9764;48.114;11.670;2023-03-13T04:29:52;19.20;85.90
19261;DHT22;9764;48.114;11.670;2023-03-13T04:32:39;19.10;85.70
19261;DHT22;9764;48.114;11.670;2023-03-13T04:35:32;19.20;85.80
19261;DHT22;9764;48.114;11.670;2023-03-13T04:38:36;19.20;85.90
19261;DHT22;9764;48.114;11.670;2023-03-13T04:41:25;19.10;85.80
19261;DHT22;9764;48.114;11.670;2023-03-13T04:44:16;19.20;85.90
19261;DHT22;9764;48.114;11.670;2023-03-13T04:46:57;19.10;85.80
19261;DHT22;9764;48.114;11.670;2023-03-13T04:49:38;19.10;85.80
19261;DHT22;9764;48.114;11.670;2023-03-13T04:52:26;19.10;85.80
19261;DHT22;9764;48.114;11.670;2023-03-13T04:54:54;19.10;85.80
19261;DHT22;9764;48.114;11.670;2023-03-13T04:57:37;19.20;85.90
19261;DHT22;9764;48.114;11.670;2023-03-13T05:00:26;19.20;85.90
19261;DHT22;9764;48.114;11.670;2023-03-13T05:03:19;19.20;85.90
19261;DHT22;9764;48.114;11.670;2023-03-13T05:06:08;19.20;85.90
19261;DHT22;9764;48.114;11.670;2023-03-13T05:08:54;19.20;85.90
19261;DHT22;9764;48.114;11.670;2023-03-13T05:11:52;19.20;85.80
19261;DHT22;9764;48.114;11.670;2023-03-13T05:14:42;19.20;85.90
19261;DHT22;9764;48.114;11.670;2023-03-13T05:17:33;19.20;85.90
19261;DHT22;9764;48.114;11.670;2023-03-13T05:20:20;19.20;85.90
19261;DHT22;9764;48.114;11.670;2023-03-13T05:23:09;19.20;85.90
19261;DHT22;9764;48.114;11.670;2023-03-13T05:26:01;19.20;85.90
19261;DHT22;9764;48.114;11.670;2023-03-13T05:28:29;19.20;85.90
19261;DHT22;9764;48.114;11.670;2023-03-13T05:31:13;19.20;86.00
19261;DHT22;9764;48.114;11.670;2023-03-13T05:34:01;19.20;86.80
19261;DHT22;9764;48.114;11.670;2023-03-13T05:36:47;19.20;86.00
19261;DHT22;9764;48.114;11.670;2023-03-13T05:39:34;19.20;86.00
19261;DHT22;9764;48.114;11.670;2023-03-13T05:42:27;19.20;86.80
19261;DHT22;9764;48.114;11.670;2023-03-13T05:45:18;19.20;86.00
19261;DHT22;9764;48.114;11.670;2023-03-13T05:47:57;19.20;85.90
19261;DHT22;9764;48.114;11.670;2023-03-13T05:50:54;19.30;86.00
19261;DHT22;9764;48.114;11.670;2023-03-13T05:53:41;19.30;86.00
19261;DHT22;9764;48.114;11.670;2023-03-13T05:56:24;19.30;86.00
19261;DHT22;9764;48.114;11.670;2023-03-13T05:59:15;19.30;86.00
19261;DHT22;9764;48.114;11.670;2023-03-13T06:02:12;19.30;85.90
19261;DHT22;9764;48.114;11.670;2023-03-13T06:04:44;19.30;86.00
19261;DHT22;9764;48.114;11.670;2023-03-13T06:07:13;19.30;85.90
19261;DHT22;9764;48.114;11.670;2023-03-13T06:09:41;19.30;85.90
19261;DHT22;9764;48.114;11.670;2023-03-13T06:12:10;19.30;85.90
19261;DHT22;9764;48.114;11.670;2023-03-13T06:14:40;19.30;85.90
19261;DHT22;9764;48.114;11.670;2023-03-13T06:17:20;19.30;85.90
19261;DHT22;9764;48.114;11.670;2023-03-13T06:19:48;19.30;85.90
19261;DHT22;9764;48.114;11.670;2023-03-13T06:22:17;19.30;85.90
19261;DHT22;9764;48.114;11.670;2023-03-13T06:24:45;19.30;85.90
19261;DHT22;9764;48.114;11.670;2023-03-13T06:27:15;19.40;85.90
19261;DHT22;9764;48.114;11.670;2023-03-13T06:29:45;19.40;85.90
19261;DHT22;9764;48.114;11.670;2023-03-13T06:32:13;19.40;85.80
19261;DHT22;9764;48.114;11.670;2023-03-13T06:34:42;19.40;85.80
19261;DHT22;9764;48.114;11.670;2023-03-13T06:37:10;19.40;85.70
19261;DHT22;9764;48.114;11.670;2023-03-13T06:39:39;19.40;85.70
19261;DHT22;9764;48.114;11.670;2023-03-13T06:42:07;19.50;85.70
19261;DHT22;9764;48.114;11.670;2023-03-13T06:44:36;19.40;85.60
19261;DHT22;9764;48.114;11.670;2023-03-13T06:47:06;19.50;85.70
19261;DHT22;9764;48.114;11.670;2023-03-13T06:49:35;19.50;85.70
19261;DHT22;9764;48.114;11.670;2023-03-13T06:52:03;19.50;85.60
19261;DHT22;9764;48.114;11.670;2023-03-13T06:54:31;19.50;85.60
19261;DHT22;9764;48.114;11.670;2023-03-13T06:57:00;19.50;85.60
19261;DHT22;9764;48.114;11.670;2023-03-13T06:59:28;19.50;85.60
19261;DHT22;9764;48.114;11.670;2023-03-13T07:01:56;19.50;85.60
19261;DHT22;9764;48.114;11.670;2023-03-13T07:04:26;19.50;85.60
19261;DHT22;9764;48.114;11.670;2023-03-13T07:06:54;19.50;85.50
19261;DHT22;9764;48.114;11.670;2023-03-13T07:09:23;19.50;85.50
19261;DHT22;9764;48.114;11.670;2023-03-13T07:11:51;19.50;85.50
19261;DHT22;9764;48.114;11.670;2023-03-13T07:14:19;19.50;85.40
19261;DHT22;9764;48.114;11.670;2023-03-13T07:16:48;19.50;85.50
19261;DHT22;9764;48.114;11.670;2023-03-13T07:19:16;19.60;85.50
19261;DHT22;9764;48.114;11.670;2023-03-13T07:21:46;19.60;85.50
19261;DHT22;9764;48.114;11.670;2023-03-13T07:24:15;19.60;85.40
19261;DHT22;9764;48.114;11.670;2023-03-13T07:26:43;19.60;85.50
19261;DHT22;9764;48.114;11.670;2023-03-13T07:29:30;19.60;85.50
19261;DHT22;9764;48.114;11.670;2023-03-13T07:31:58;19.60;85.40
19261;DHT22;9764;48.114;11.670;2023-03-13T07:34:27;19.60;85.40
19261;DHT22;9764;48.114;11.670;2023-03-13T07:36:57;19.60;85.40
19261;DHT22;9764;48.114;11.670;2023-03-13T07:39:25;19.70;85.40
19261;DHT22;9764;48.114;11.670;2023-03-13T07:41:53;19.70;85.30
19261;DHT22;9764;48.114;11.670;2023-03-13T07:44:21;19.70;85.30
19261;DHT22;9764;48.114;11.670;2023-03-13T07:46:50;19.70;85.20
19261;DHT22;9764;48.114;11.670;2023-03-13T07:49:18;19.70;85.20
19261;DHT22;9764;48.114;11.670;2023-03-13T07:51:46;19.70;85.20
19261;DHT22;9764;48.114;11.670;2023-03-13T07:54:18;19.70;85.20
19261;DHT22;9764;48.114;11.670;2023-03-13T07:56:46;19.70;85.10
19261;DHT22;9764;48.114;11.670;2023-03-13T07:59:15;19.80;85.10
19261;DHT22;9764;48.114;11.670;2023-03-13T08:01:43;19.80;85.10
19261;DHT22;9764;48.114;11.670;2023-03-13T08:04:12;19.80;85.10
19261;DHT22;9764;48.114;11.670;2023-03-13T08:06:40;19.80;85.00
19261;DHT22;9764;48.114;11.670;2023-03-13T08:09:09;19.80;85.10
19261;DHT22;9764;48.114;11.670;2023-03-13T08:11:39;19.80;85.90
19261;DHT22;9764;48.114;11.670;2023-03-13T08:14:10;19.80;85.00
19261;DHT22;9764;48.114;11.670;2023-03-13T08:16:39;19.90;85.00
19261;DHT22;9764;48.114;11.670;2023-03-13T08:19:08;19.90;85.00
19261;DHT22;9764;48.114;11.670;2023-03-13T08:21:37;19.90;85.00
19261;DHT22;9764;48.114;11.670;2023-03-13T08:24:07;19.90;85.10
19261;DHT22;9764;48.114;11.670;2023-03-13T08:26:39;19.90;85.10
19261;DHT22;9764;48.114;11.670;2023-03-13T08:29:10;19.90;85.10
19261;DHT22;9764;48.114;11.670;2023-03-13T08:31:42;19.90;85.10
19261;DHT22;9764;48.114;11.670;2023-03-13T08:34:12;19.90;85.10
19261;DHT22;9764;48.114;11.670;2023-03-13T08:36:40;19.90;85.00
19261;DHT22;9764;48.114;11.670;2023-03-13T08:39:11;19.90;85.00
19261;DHT22;9764;48.114;11.670;2023-03-13T08:41:41;19.90;85.00
19261;DHT22;9764;48.114;11.670;2023-03-13T08:44:11;19.90;85.00
19261;DHT22;9764;48.114;11.670;2023-03-13T08:46:40;20.00;85.00
19261;DHT22;9764;48.114;11.670;2023-03-13T08:49:10;20.00;85.00
19261;DHT22;9764;48.114;11.670;2023-03-13T08:51:39;20.00;84.90
19261;DHT22;9764;48.114;11.670;2023-03-13T08:54:08;20.00;84.90
19261;DHT22;9764;48.114;11.670;2023-03-13T08:56:36;20.00;85.00
19261;DHT22;9764;48.114;11.670;2023-03-13T08:59:06;20.00;85.00
19261;DHT22;9764;48.114;11.670;2023-03-13T09:01:35;20.00;85.00
19261;DHT22;9764;48.114;11.670;2023-03-13T09:04:04;20.00;85.00
19261;DHT22;9764;48.114;11.670;2023-03-13T09:06:33;20.00;85.00
19261;DHT22;9764;48.114;11.670;2023-03-13T09:09:02;20.00;84.90
19261;DHT22;9764;48.114;11.670;2023-03-13T09:11:31;20.10;85.00
19261;DHT22;9764;48.114;11.670;2023-03-13T09:13:59;20.10;85.00
19261;DHT22;9764;48.114;11.670;2023-03-13T09:16:31;20.10;85.00
19261;DHT22;9764;48.114;11.670;2023-03-13T09:18:59;20.10;85.00
19261;DHT22;9764;48.114;11.670;2023-03-13T09:21:29;20.10;85.80
19261;DHT22;9764;48.114;11.670;2023-03-13T09:23:58;20.10;84.90
19261;DHT22;9764;48.114;11.670;2023-03-13T09:26:27;20.10;84.90
19261;DHT22;9764;48.114;11.670;2023-03-13T09:28:56;20.20;85.00
19261;DHT22;9764;48.114;11.670;2023-03-13T09:31:26;20.20;84.90
19261;DHT22;9764;48.114;11.670;2023-03-13T09:33:56;20.20;84.90
19261;DHT22;9764;48.114;11.670;2023-03-13T09:36:26;20.30;84.90
19261;DHT22;9764;48.114;11.670;2023-03-13T09:38:56;20.30;84.90
19261;DHT22;9764;48.114;11.670;2023-03-13T09:41:26;20.30;84.80
19261;DHT22;9764;48.114;11.670;2023-03-13T09:44:03;20.30;84.70
19261;DHT22;9764;48.114;11.670;2023-03-13T09:46:37;20.40;85.50
19261;DHT22;9764;48.114;11.670;2023-03-13T09:49:15;20.30;84.60
19261;DHT22;9764;48.114;11.670;2023-03-13T09:51:51;20.40;84.60
19261;DHT22;9764;48.114;11.670;2023-03-13T09:54:26;20.40;84.60
19261;DHT22;9764;48.114;11.670;2023-03-13T09:56:57;20.50;84.70
19261;DHT22;9764;48.114;11.670;2023-03-13T09:59:31;20.50;84.80
19261;DHT22;9764;48.114;11.670;2023-03-13T10:02:06;20.40;84.70
19261;DHT22;9764;48.114;11.670;2023-03-13T10:04:48;20.50;85.00
19261;DHT22;9764;48.114;11.670;2023-03-13T10:07:19;20.50;84.70
19261;DHT22;9764;48.114;11.670;2023-03-13T10:09:47;20.50;85.00
19261;DHT22;9764;48.114;11.670;2023-03-13T10:12:18;20.50;84.90
19261;DHT22;9764;48.114;11.670;2023-03-13T10:15:04;20.50;85.20
19261;DHT22;9764;48.114;11.670;2023-03-13T10:17:40;20.50;85.30
19261;DHT22;9764;48.114;11.670;2023-03-13T10:20:20;20.50;85.30
19261;DHT22;9764;48.114;11.670;2023-03-13T10:22:51;20.50;85.50
19261;DHT22;9764;48.114;11.670;2023-03-13T10:25:27;20.50;85.50
19261;DHT22;9764;48.114;11.670;2023-03-13T10:27:57;20.50;85.50
19261;DHT22;9764;48.114;11.670;2023-03-13T10:30:28;20.50;85.50
19261;DHT22;9764;48.114;11.670;2023-03-13T10:32:58;20.50;85.60
19261;DHT22;9764;48.114;11.670;2023-03-13T10:35:33;20.50;85.60
19261;DHT22;9764;48.114;11.670;2023-03-13T10:38:05;20.50;85.60
19261;DHT22;9764;48.114;11.670;2023-03-13T10:40:34;20.50;85.60
19261;DHT22;9764;48.114;11.670;2023-03-13T10:43:04;20.60;85.80
19261;DHT22;9764;48.114;11.670;2023-03-13T10:45:35;20.60;85.70
19261;DHT22;9764;48.114;11.670;2023-03-13T10:48:12;20.60;85.80
19261;DHT22;9764;48.114;11.670;2023-03-13T10:50:44;20.60;85.70
19261;DHT22;9764;48.114;11.670;2023-03-13T10:53:25;20.60;85.70
19261;DHT22;9764;48.114;11.670;2023-03-13T10:56:03;20.70;85.80
19261;DHT22;9764;48.114;11.670;2023-03-13T10:58:40;20.70;85.80
19261;DHT22;9764;48.114;11.670;2023-03-13T11:01:20;20.70;85.90
19261;DHT22;9764;48.114;11.670;2023-03-13T11:03:50;20.70;85.80
19261;DHT22;9764;48.114;11.670;2023-03-13T11:06:26;20.80;86.00
19261;DHT22;9764;48.114;11.670;2023-03-13T11:09:01;20.80;85.80
19261;DHT22;9764;48.114;11.670;2023-03-13T11:11:30;20.80;85.70
19261;DHT22;9764;48.114;11.670;2023-03-13T11:14:14;20.80;85.70
19261;DHT22;9764;48.114;11.670;2023-03-13T11:16:47;20.90;86.00
19261;DHT22;9764;48.114;11.670;2023-03-13T11:19:28;20.90;85.90
19261;DHT22;9764;48.114;11.670;2023-03-13T11:22:17;20.80;86.00
19261;DHT22;9764;48.114;11.670;2023-03-13T11:24:51;20.90;85.90
19261;DHT22;9764;48.114;11.670;2023-03-13T11:27:26;20.90;86.20
19261;DHT22;9764;48.114;11.670;2023-03-13T11:30:07;20.90;86.10
19261;DHT22;9764;48.114;11.670;2023-03-13T11:32:41;20.90;86.10
19261;DHT22;9764;48.114;11.670;2023-03-13T11:35:23;21.00;86.00
19261;DHT22;9764;48.114;11.670;2023-03-13T11:37:57;21.00;86.20
19261;DHT22;9764;48.114;11.670;2023-03-13T11:40:30;21.00;85.90
19261;DHT22;9764;48.114;11.670;2023-03-13T11:43:23;21.00;86.90
19261;DHT22;9764;48.114;11.670;2023-03-13T11:46:07;21.00;86.30
19261;DHT22;9764;48.114;11.670;2023-03-13T11:48:54;21.00;85.70
19261;DHT22;9764;48.114;11.670;2023-03-13T11:51:29;21.00;85.70
19261;DHT22;9764;48.114;11.670;2023-03-13T11:54:12;21.00;85.80
19261;DHT22;9764;48.114;11.670;2023-03-13T11:56:51;21.00;85.80
19261;DHT22;9764;48.114;11.670;2023-03-13T11:59:30;21.00;86.30
19261;DHT22;9764;48.114;11.670;2023-03-13T12:02:14;21.00;85.90
19261;DHT22;9764;48.114;11.670;2023-03-13T12:04:49;21.00;86.00
19261;DHT22;9764;48.114;11.670;2023-03-13T12:07:26;21.00;86.10
19261;DHT22;9764;48.114;11.670;2023-03-13T12:10:00;21.00;86.30
19261;DHT22;9764;48.114;11.670;2023-03-13T12:12:36;21.00;86.50
19261;DHT22;9764;48.114;11.670;2023-03-13T12:15:17;21.00;86.50
19261;DHT22;9764;48.114;11.670;2023-03-13T12:17:49;21.00;86.40
19261;DHT22;9764;48.114;11.670;2023-03-13T12:20:22;21.00;86.10
19261;DHT22;9764;48.114;11.670;2023-03-13T12:22:59;21.10;86.50
19261;DHT22;9764;48.114;11.670;2023-03-13T12:25:36;21.10;86.40
19261;DHT22;9764;48.114;11.670;2023-03-13T12:28:17;21.10;86.70
19261;DHT22;9764;48.114;11.670;2023-03-13T12:30:56;21.10;86.50
19261;DHT22;9764;48.114;11.670;2023-03-13T12:33:28;21.10;87.20
19261;DHT22;9764;48.114;11.670;2023-03-13T12:36:04;21.10;86.30
19261;DHT22;9764;48.114;11.670;2023-03-13T12:38:38;21.20;86.50
19261;DHT22;9764;48.114;11.670;2023-03-13T12:41:18;21.20;86.50
19261;DHT22;9764;48.114;11.670;2023-03-13T12:43:49;21.20;86.40
19261;DHT22;9764;48.114;11.670;2023-03-13T12:46:38;21.20;86.40
19261;DHT22;9764;48.114;11.670;2023-03-13T12:49:39;21.20;86.40
19261;DHT22;9764;48.114;11.670;2023-03-13T12:52:38;21.30;86.60
19261;DHT22;9764;48.114;11.670;2023-03-13T13:01:03;21.30;86.10
19261;DHT22;9764;48.114;11.670;2023-03-13T13:03:35;21.30;86.10
19261;DHT22;9764;48.114;11.670;2023-03-13T13:06:07;21.30;86.40
19261;DHT22;9764;48.114;11.670;2023-03-13T13:08:38;21.30;87.30
19261;DHT22;9764;48.114;11.670;2023-03-13T13:15:04;21.30;86.40
19261;DHT22;9764;48.114;11.670;2023-03-13T13:20:40;21.40;86.20
19261;DHT22;9764;48.114;11.670;2023-03-13T13:23:33;21.40;86.20
19261;DHT22;9764;48.114;11.670;2023-03-13T13:32:32;21.40;86.10
19261;DHT22;9764;48.114;11.670;2023-03-13T13:35:03;21.50;86.30
19261;DHT22;9764;48.114;11.670;2023-03-13T13:37:33;21.40;86.10
19261;DHT22;9764;48.114;11.670;2023-03-13T13:40:22;21.50;86.20
19261;DHT22;9764;48.114;11.670;2023-03-13T13:42:55;21.50;86.20
19261;DHT22;9764;48.114;11.670;2023-03-13T13:45:29;21.50;86.00
19261;DHT22;9764;48.114;11.670;2023-03-13T13:48:25;21.50;86.00
19261;DHT22;9764;48.114;11.670;2023-03-13T13:51:22;21.50;85.90
19261;DHT22;9764;48.114;11.670;2023-03-13T13:53:56;21.50;86.00
19261;DHT22;9764;48.114;11.670;2023-03-13T13:56:37;21.50;85.90
19261;DHT22;9764;48.114;11.670;2023-03-13T13:59:41;21.50;85.80
19261;DHT22;9764;48.114;11.670;2023-03-13T14:02:23;21.50;85.80
19261;DHT22;9764;48.114;11.670;2023-03-13T14:05:02;21.50;85.80
19261;DHT22;9764;48.114;11.670;2023-03-13T14:07:46;21.50;85.80
19261;DHT22;9764;48.114;11.670;2023-03-13T14:10:25;21.60;85.80
19261;DHT22;9764;48.114;11.670;2023-03-13T14:12:56;21.60;85.70
19261;DHT22;9764;48.114;11.670;2023-03-13T14:15:26;21.60;85.70
19261;DHT22;9764;48.114;11.670;2023-03-13T14:17:57;21.60;85.70
19261;DHT22;9764;48.114;11.670;2023-03-13T14:20:31;21.60;85.80
19261;DHT22;9764;48.114;11.670;2023-03-13T14:23:02;21.60;85.80
19261;DHT22;9764;48.114;11.670;2023-03-13T14:25:48;21.60;85.70
19261;DHT22;9764;48.114;11.670;2023-03-13T14:28:19;21.60;85.60
19261;DHT22;9764;48.114;11.670;2023-03-13T14:30:49;21.60;85.70
19261;DHT22;9764;48.114;11.670;2023-03-13T14:33:18;21.60;85.70
19261;DHT22;9764;48.114;11.670;2023-03-13T14:35:48;21.60;85.80
19261;DHT22;9764;48.114;11.670;2023-03-13T14:38:18;21.60;85.70
19261;DHT22;9764;48.114;11.670;2023-03-13T14:40:48;21.60;85.80
19261;DHT22;9764;48.114;11.670;2023-03-13T14:43:24;21.70;85.90
19261;DHT22;9764;48.114;11.670;2023-03-13T14:45:55;21.60;85.80
19261;DHT22;9764;48.114;11.670;2023-03-13T14:48:28;21.60;85.90
19261;DHT22;9764;48.114;11.670;2023-03-13T14:51:09;21.60;85.90
19261;DHT22;9764;48.114;11.670;2023-03-13T14:53:53;21.70;86.00
19261;DHT22;9764;48.114;11.670;2023-03-13T14:56:31;21.70;86.00
19261;DHT22;9764;48.114;11.670;2023-03-13T14:59:14;21.70;86.20
19261;DHT22;9764;48.114;11.670;2023-03-13T15:01:44;21.70;86.20
19261;DHT22;9764;48.114;11.670;2023-03-13T15:04:12;21.60;86.20
19261;DHT22;9764;48.114;11.670;2023-03-13T15:06:42;21.60;87.00
19261;DHT22;9764;48.114;11.670;2023-03-13T15:09:19;21.60;86.20
19261;DHT22;9764;48.114;11.670;2023-03-13T15:11:54;21.60;86.20
19261;DHT22;9764;48.114;11.670;2023-03-13T15:14:35;21.70;86.30
19261;DHT22;9764;48.114;11.670;2023-03-13T15:17:14;21.70;86.30
19261;DHT22;9764;48.114;11.670;2023-03-13T15:19:47;21.70;86.20
19261;DHT22;9764;48.114;11.670;2023-03-13T15:22:19;21.70;86.30
19261;DHT22;9764;48.114;11.670;2023-03-13T15:24:48;21.70;86.20
19261;DHT22;9764;48.114;11.670;2023-03-13T15:27:34;21.70;86.20
19261;DHT22;9764;48.114;11.670;2023-03-13T15:30:03;21.70;86.30
19261;DHT22;9764;48.114;11.670;2023-03-13T15:32:33;21.70;86.30
19261;DHT22;9764;48.114;11.670;2023-03-13T15:35:19;21.70;86.30
19261;DHT22;9764;48.114;11.670;2023-03-13T15:37:50;21.70;86.30
19261;DHT22;9764;48.114;11.670;2023-03-13T15:40:18;21.70;86.30
19261;DHT22;9764;48.114;11.670;2023-03-13T15:42:47;21.70;86.30
19261;DHT22;9764;48.114;11.670;2023-03-13T15:45:15;21.70;86.30
19261;DHT22;9764;48.114;11.670;2023-03-13T15:47:44;21.70;86.40
19261;DHT22;9764;48.114;11.670;2023-03-13T15:50:16;21.70;86.40
19261;DHT22;9764;48.114;11.670;2023-03-13T15:52:45;21.70;86.40
19261;DHT22;9764;48.114;11.670;2023-03-13T15:55:15;21.60;86.20
19261;DHT22;9764;48.114;11.670;2023-03-13T15:57:44;21.60;86.30
19261;DHT22;9764;48.114;11.670;2023-03-13T16:00:17;21.60;86.30
19261;DHT22;9764;48.114;11.670;2023-03-13T16:02:46;21.60;86.20
19261;DHT22;9764;48.114;11.670;2023-03-13T16:05:15;21.60;86.30
19261;DHT22;9764;48.114;11.670;2023-03-13T16:07:43;21.60;86.30
19261;DHT22;9764;48.114;11.670;2023-03-13T16:10:17;21.60;86.40
19261;DHT22;9764;48.114;11.670;2023-03-13T16:12:46;21.60;86.30
19261;DHT22;9764;48.114;11.670;2023-03-13T16:15:14;21.60;86.40
19261;DHT22;9764;48.114;11.670;2023-03-13T16:17:42;21.60;86.50
19261;DHT22;9764;48.114;11.670;2023-03-13T16:20:14;21.60;86.30
19261;DHT22;9764;48.114;11.670;2023-03-13T16:22:43;21.50;86.30
19261;DHT22;9764;48.114;11.670;2023-03-13T16:25:14;21.60;86.40
19261;DHT22;9764;48.114;11.670;2023-03-13T16:27:42;21.60;86.40
19261;DHT22;9764;48.114;11.670;2023-03-13T16:30:15;21.60;86.50